Time;durP1;ratioP1;P1;durP2;ratioP2;P2;SDS_P1;SDS_P2;PMS_P1;PMS_P2;Temp;Humidity;BMP_temperature;BMP_pressure;BME280_temperature;BME280_humidity;BME280_pressure;Samples;Min_cycle;Max_cycle;Signal;HPM_P1;HPM_P2
2021/09/04 00:01:27;;;;;;;18.00;15.43;;;16.00;99.90;;;;;;5092728;28;20459;-88
2021/09/04 00:03:54;;;;;;;19.27;15.60;;;16.00;99.90;;;;;;5095032;28;20452;-88
2021/09/04 00:06:21;;;;;;;18.60;16.70;;;16.00;99.90;;;;;;5078726;28;20479;-88
2021/09/04 00:08:47;;;;;;;16.50;14.90;;;16.00;99.90;;;;;;5086206;28;20454;-88
2021/09/04 00:11:14;;;;;;;15.20;13.70;;;15.90;99.90;;;;;;5077420;28;20486;-89
2021/09/04 00:13:42;;;;;;;16.60;14.67;;;15.90;99.90;;;;;;5077271;28;20454;-89
2021/09/04 00:16:10;;;;;;;18.80;15.03;;;15.90;99.90;;;;;;5079168;28;20451;-88
2021/09/04 00:18:36;;;;;;;16.83;14.70;;;15.90;99.90;;;;;;5098585;28;20466;-88
2021/09/04 00:21:03;;;;;;;17.57;15.53;;;15.90;99.90;;;;;;5083455;28;20990;-89
2021/09/04 00:23:30;;;;;;;18.67;15.13;;;15.90;99.90;;;;;;5077127;28;20958;-88
2021/09/04 00:25:57;;;;;;;20.73;16.10;;;15.90;99.90;;;;;;5077022;28;21008;-88
2021/09/04 00:28:23;;;;;;;17.27;15.47;;;15.80;99.90;;;;;;5086188;28;20453;-88
2021/09/04 00:30:51;;;;;;;18.20;15.10;;;15.80;99.90;;;;;;5097068;28;20468;-87
2021/09/04 00:33:18;;;;;;;16.33;14.53;;;15.80;99.90;;;;;;5083068;28;20505;-88
2021/09/04 00:35:45;;;;;;;18.20;15.60;;;15.70;99.90;;;;;;5076554;28;20455;-89
2021/09/04 00:38:11;;;;;;;16.90;15.07;;;15.60;99.90;;;;;;5076356;28;20451;-88
2021/09/04 00:40:38;;;;;;;17.10;15.17;;;15.60;99.90;;;;;;5076212;28;20467;-88
2021/09/04 00:43:05;;;;;;;16.00;14.40;;;15.60;99.90;;;;;;5076347;28;20435;-89
2021/09/04 00:45:32;;;;;;;16.17;14.50;;;15.70;99.90;;;;;;5075710;28;20943;-89
2021/09/04 00:48:03;;;;;;;17.03;15.23;;;15.60;99.90;;;;;;5075400;28;20448;-89
2021/09/04 00:50:33;;;;;;;16.70;15.10;;;15.60;99.90;;;;;;5075860;28;20470;-89
2021/09/04 00:53:00;;;;;;;18.17;15.90;;;15.60;99.90;;;;;;5075919;28;20447;-89
2021/09/04 00:55:28;;;;;;;16.70;15.00;;;15.50;99.90;;;;;;5075810;28;20466;-89
2021/09/04 00:57:55;;;;;;;20.00;15.50;;;15.50;99.90;;;;;;5075705;28;20939;-88
2021/09/04 01:00:24;;;;;;;18.13;14.67;;;15.40;99.90;;;;;;5078324;28;20485;-89
2021/09/04 01:02:50;;;;;;;16.17;14.50;;;15.40;99.90;;;;;;5079147;28;20522;-89
2021/09/04 01:05:19;;;;;;;17.00;15.20;;;15.30;99.90;;;;;;5075234;28;20439;-89
2021/09/04 01:07:45;;;;;;;16.90;13.27;;;15.30;99.90;;;;;;5075789;28;20479;-89
2021/09/04 01:10:13;;;;;;;15.60;14.07;;;15.20;99.90;;;;;;5075670;28;20463;-89
2021/09/04 01:12:40;;;;;;;15.17;13.60;;;15.20;99.90;;;;;;5075522;28;20455;-88
2021/09/04 01:15:10;;;;;;;15.80;14.00;;;15.30;99.90;;;;;;5075479;28;20455;-88
2021/09/04 01:17:37;;;;;;;16.50;14.67;;;15.30;99.90;;;;;;5078103;28;20443;-87
2021/09/04 01:20:05;;;;;;;16.27;14.63;;;15.30;99.90;;;;;;5098991;28;20439;-87
2021/09/04 01:22:34;;;;;;;19.60;16.10;;;15.30;99.90;;;;;;5077769;28;20459;-89
2021/09/04 01:25:03;;;;;;;15.33;13.20;;;15.20;99.90;;;;;;5076184;28;20556;-89
2021/09/04 01:27:33;;;;;;;17.33;15.53;;;15.20;99.90;;;;;;5096812;28;20508;-87
2021/09/04 01:30:00;;;;;;;15.33;13.73;;;15.20;99.90;;;;;;5092595;28;20440;-89
2021/09/04 01:32:26;;;;;;;18.70;14.60;;;15.20;99.90;;;;;;5094989;28;20451;-86
2021/09/04 01:34:53;;;;;;;22.33;16.13;;;15.10;99.90;;;;;;5076774;28;20439;-89
2021/09/04 01:37:20;;;;;;;21.27;15.00;;;15.10;99.90;;;;;;5075041;28;20439;-89
2021/09/04 01:39:47;;;;;;;17.80;15.90;;;15.10;99.90;;;;;;5074464;28;20436;-89
2021/09/04 01:42:14;;;;;;;18.20;15.70;;;15.00;99.90;;;;;;5086519;28;20463;-87
2021/09/04 01:44:42;;;;;;;19.37;15.03;;;15.10;99.90;;;;;;5093927;28;20457;-88
2021/09/04 01:47:08;;;;;;;17.60;14.23;;;15.00;99.90;;;;;;5094084;28;20459;-88
2021/09/04 01:49:36;;;;;;;17.50;14.33;;;15.00;99.90;;;;;;5076775;28;20443;-90
2021/09/04 01:52:04;;;;;;;17.07;14.60;;;15.00;99.90;;;;;;5075074;28;20474;-89
2021/09/04 01:54:30;;;;;;;18.80;15.30;;;15.00;99.90;;;;;;5074796;28;20542;-89
2021/09/04 01:56:57;;;;;;;16.40;14.20;;;15.00;99.90;;;;;;5074398;28;20443;-90
2021/09/04 01:59:24;;;;;;;18.70;15.10;;;15.00;99.90;;;;;;5080827;28;20932;-88
2021/09/04 02:01:52;;;;;;;18.07;15.30;;;14.90;99.90;;;;;;5082262;28;20458;-89
2021/09/04 02:04:18;;;;;;;16.97;15.27;;;14.90;99.90;;;;;;5091214;28;20534;-87
2021/09/04 02:06:45;;;;;;;18.17;14.73;;;14.90;99.90;;;;;;5097395;28;20470;-89
2021/09/04 02:09:12;;;;;;;18.43;14.87;;;14.90;99.90;;;;;;5077385;28;20427;-89
2021/09/04 02:11:38;;;;;;;17.30;15.20;;;14.80;99.90;;;;;;5074221;28;20487;-89
2021/09/04 02:14:05;;;;;;;15.73;14.23;;;14.80;99.90;;;;;;5079186;28;20458;-89
2021/09/04 02:16:32;;;;;;;15.77;13.70;;;14.70;99.90;;;;;;5073932;28;20935;-89
2021/09/04 02:19:00;;;;;;;17.30;14.73;;;14.70;99.90;;;;;;5075135;28;20447;-89
2021/09/04 02:21:27;;;;;;;20.13;14.67;;;14.70;99.90;;;;;;5072859;28;20999;-89
2021/09/04 02:23:53;;;;;;;24.63;16.90;;;14.70;99.90;;;;;;5073449;28;20444;-89
2021/09/04 02:26:20;;;;;;;27.93;16.30;;;14.60;99.90;;;;;;5073691;28;20443;-89
2021/09/04 02:28:47;;;;;;;24.97;15.47;;;14.60;99.90;;;;;;5073937;28;20455;-88
2021/09/04 02:31:15;;;;;;;25.50;16.30;;;14.60;99.90;;;;;;5073827;28;20467;-89
2021/09/04 02:33:42;;;;;;;21.60;15.33;;;14.60;99.90;;;;;;5074440;28;20476;-90
2021/09/04 02:36:10;;;;;;;23.00;16.73;;;14.60;99.90;;;;;;5074205;28;20454;-89
2021/09/04 02:38:37;;;;;;;29.30;16.73;;;14.50;99.90;;;;;;5074006;28;20436;-89
2021/09/04 02:41:03;;;;;;;25.10;16.93;;;14.50;99.90;;;;;;5073529;28;20471;-89
2021/09/04 02:43:30;;;;;;;23.40;15.47;;;14.50;99.90;;;;;;5073662;28;20457;-89
2021/09/04 02:45:57;;;;;;;29.90;17.93;;;14.50;99.90;;;;;;5073756;28;20451;-88
2021/09/04 02:48:23;;;;;;;27.67;15.53;;;14.60;99.90;;;;;;5073352;28;20490;-89
2021/09/04 02:50:50;;;;;;;16.77;14.43;;;14.50;99.90;;;;;;5073424;28;20470;-89
2021/09/04 02:53:19;;;;;;;20.33;14.43;;;14.50;99.90;;;;;;5074331;28;20432;-89
2021/09/04 02:55:46;;;;;;;19.77;13.90;;;14.50;99.90;;;;;;5094697;28;20530;-89
2021/09/04 02:58:12;;;;;;;20.90;13.67;;;14.50;99.90;;;;;;5094209;28;20444;-89
2021/09/04 03:00:39;;;;;;;16.60;12.67;;;14.50;99.90;;;;;;5096217;28;20481;-89
2021/09/04 03:03:06;;;;;;;14.87;12.70;;;14.50;99.90;;;;;;5095759;28;20441;-88
2021/09/04 03:05:33;;;;;;;14.33;12.80;;;14.50;99.90;;;;;;5079912;28;20439;-88
2021/09/04 03:07:59;;;;;;;18.07;13.60;;;14.50;99.90;;;;;;5095973;28;20481;-87
2021/09/04 03:10:27;;;;;;;17.60;12.90;;;14.40;99.90;;;;;;5110301;22;20454;-84
2021/09/04 03:12:54;;;;;;;16.13;13.20;;;14.40;99.90;;;;;;5055356;28;20836;-85
2021/09/04 03:15:21;;;;;;;18.20;15.77;;;14.40;99.90;;;;;;5054941;28;20436;-85
2021/09/04 03:17:47;;;;;;;17.17;13.70;;;14.30;99.90;;;;;;5053346;28;20439;-84
2021/09/04 03:20:14;;;;;;;15.03;12.87;;;14.30;99.90;;;;;;5053946;28;20454;-84
2021/09/04 03:22:41;;;;;;;15.53;13.90;;;14.30;99.90;;;;;;5074311;28;20446;-86
2021/09/04 03:25:08;;;;;;;15.13;13.53;;;14.20;99.90;;;;;;5089650;28;20435;-84
2021/09/04 03:27:36;;;;;;;17.20;14.30;;;14.20;99.90;;;;;;5083156;28;20484;-86
2021/09/04 03:30:04;;;;;;;15.23;13.60;;;14.20;99.90;;;;;;5077254;28;20498;-85
2021/09/04 03:32:30;;;;;;;14.53;13.03;;;14.20;99.90;;;;;;5074498;28;20466;-85
2021/09/04 03:34:57;;;;;;;14.43;13.00;;;14.20;99.90;;;;;;5074018;28;20436;-84
2021/09/04 03:37:24;;;;;;;15.07;13.43;;;14.10;99.90;;;;;;5075203;28;20448;-84
2021/09/04 03:39:51;;;;;;;15.90;12.97;;;14.10;99.90;;;;;;5074125;28;20460;-85
2021/09/04 03:42:17;;;;;;;13.70;12.10;;;14.10;99.90;;;;;;5073133;28;20467;-86
2021/09/04 03:44:45;;;;;;;14.83;12.87;;;14.10;99.90;;;;;;5074360;28;20446;-84
2021/09/04 03:47:12;;;;;;;14.67;13.17;;;14.10;99.90;;;;;;5074094;28;21028;-85
2021/09/04 03:49:39;;;;;;;16.77;14.00;;;14.10;99.90;;;;;;5077836;28;20442;-84
2021/09/04 03:52:06;;;;;;;15.33;13.40;;;14.00;99.90;;;;;;5074566;28;20468;-85
2021/09/04 03:54:33;;;;;;;15.13;13.53;;;14.00;99.90;;;;;;5076884;28;20455;-84
2021/09/04 03:56:59;;;;;;;12.77;11.53;;;13.90;99.90;;;;;;5096336;28;20437;-83
2021/09/04 03:59:26;;;;;;;14.93;12.37;;;13.90;99.90;;;;;;5086242;28;20449;-85
2021/09/04 04:01:54;;;;;;;13.17;11.43;;;13.90;99.90;;;;;;5093890;28;20443;-84
2021/09/04 04:04:21;;;;;;;15.27;11.73;;;14.00;99.90;;;;;;5078077;28;20443;-85
2021/09/04 04:06:48;;;;;;;14.17;12.73;;;14.00;99.90;;;;;;5093710;28;20434;-84
2021/09/04 04:09:14;;;;;;;12.90;11.57;;;14.00;99.90;;;;;;5081086;28;20445;-85
2021/09/04 04:11:41;;;;;;;14.23;11.93;;;13.90;99.90;;;;;;5084633;28;20494;-85
2021/09/04 04:14:08;;;;;;;15.33;12.33;;;13.90;99.90;;;;;;5087834;28;20456;-84
2021/09/04 04:16:35;;;;;;;15.37;13.77;;;13.90;99.90;;;;;;5082682;28;20440;-85
2021/09/04 04:19:03;;;;;;;12.60;11.30;;;13.90;99.90;;;;;;5080780;28;20824;-85
2021/09/04 04:21:29;;;;;;;13.00;11.70;;;13.90;99.90;;;;;;5092806;28;20461;-84
2021/09/04 04:23:56;;;;;;;13.30;11.90;;;13.90;99.90;;;;;;5094388;28;20449;-85
2021/09/04 04:26:23;;;;;;;15.77;13.07;;;13.90;99.90;;;;;;5099558;28;20429;-84
2021/09/04 04:28:49;;;;;;;15.83;12.30;;;13.90;99.90;;;;;;5084398;28;20478;-85
2021/09/04 04:31:16;;;;;;;14.63;11.53;;;13.80;99.90;;;;;;5082750;28;20459;-85
2021/09/04 04:33:43;;;;;;;16.23;13.30;;;13.80;99.90;;;;;;5075918;28;20451;-85
2021/09/04 04:36:11;;;;;;;15.03;13.40;;;13.80;99.90;;;;;;5077838;28;20447;-85
2021/09/04 04:38:37;;;;;;;13.10;11.90;;;13.80;99.90;;;;;;5074969;28;20441;-85
2021/09/04 04:41:04;;;;;;;14.47;12.97;;;13.70;99.90;;;;;;5077350;28;20472;-84
2021/09/04 04:43:31;;;;;;;15.13;13.30;;;13.70;99.90;;;;;;5094574;28;20454;-84
2021/09/04 04:45:58;;;;;;;15.57;13.90;;;13.70;99.90;;;;;;5096965;28;20446;-85
2021/09/04 04:48:25;;;;;;;15.20;13.50;;;13.60;99.90;;;;;;5084863;28;20489;-84
2021/09/04 04:50:52;;;;;;;14.87;13.23;;;13.60;99.90;;;;;;5089499;28;20475;-83
2021/09/04 04:53:20;;;;;;;12.40;11.10;;;13.60;99.90;;;;;;5094554;28;20431;-84
2021/09/04 04:55:47;;;;;;;16.20;13.17;;;13.60;99.90;;;;;;5078846;28;20448;-84
2021/09/04 04:58:13;;;;;;;15.60;14.00;;;13.50;99.90;;;;;;5077525;28;20467;-84
2021/09/04 05:00:40;;;;;;;14.70;12.60;;;13.50;99.90;;;;;;5076345;28;20821;-84
2021/09/04 05:03:07;;;;;;;14.97;13.37;;;13.50;99.90;;;;;;5076074;28;20471;-84
2021/09/04 05:05:34;;;;;;;14.07;12.70;;;13.50;99.90;;;;;;5075779;28;20817;-84
2021/09/04 05:08:00;;;;;;;14.60;13.20;;;13.50;99.90;;;;;;5076411;28;20475;-84
2021/09/04 05:10:29;;;;;;;16.10;13.40;;;13.50;99.90;;;;;;5079938;28;20447;-84
2021/09/04 05:12:55;;;;;;;15.03;13.43;;;13.50;99.90;;;;;;5080203;28;20448;-85
2021/09/04 05:15:22;;;;;;;17.53;13.67;;;13.50;99.90;;;;;;5075663;28;20445;-85
2021/09/04 05:17:49;;;;;;;13.90;12.50;;;13.40;99.90;;;;;;5084204;28;20447;-83
2021/09/04 05:20:16;;;;;;;14.90;13.40;;;13.30;99.90;;;;;;5087389;28;20478;-84
2021/09/04 05:22:45;;;;;;;15.87;13.73;;;13.50;99.90;;;;;;5074295;28;20444;-85
2021/09/04 05:25:12;;;;;;;14.63;13.13;;;13.40;99.90;;;;;;5082646;28;20546;-85
2021/09/04 05:27:40;;;;;;;18.70;13.33;;;13.60;99.90;;;;;;5083200;28;20492;-86
2021/09/04 05:30:07;;;;;;;18.73;15.17;;;13.60;99.90;;;;;;5078638;28;20450;-84
2021/09/04 05:32:34;;;;;;;14.20;12.57;;;13.60;99.90;;;;;;5078475;28;20464;-84
2021/09/04 05:35:01;;;;;;;16.10;13.40;;;13.70;99.90;;;;;;5079088;28;20448;-84
2021/09/04 05:37:28;;;;;;;15.90;14.30;;;13.70;99.90;;;;;;5078488;28;20492;-84
2021/09/04 05:39:55;;;;;;;14.20;12.90;;;13.70;99.90;;;;;;5078201;28;20456;-84
2021/09/04 05:42:22;;;;;;;14.97;13.33;;;13.70;99.90;;;;;;5080437;28;20456;-84
2021/09/04 05:44:50;;;;;;;15.03;13.43;;;13.80;99.90;;;;;;5087581;28;20440;-82
2021/09/04 05:47:17;;;;;;;17.83;12.10;;;13.80;99.90;;;;;;5085359;28;20447;-84
2021/09/04 05:49:43;;;;;;;14.87;13.17;;;13.70;99.90;;;;;;5083902;28;21002;-82
2021/09/04 05:52:10;;;;;;;14.20;12.80;;;13.70;99.90;;;;;;5090322;28;20471;-82
2021/09/04 05:54:37;;;;;;;15.77;13.93;;;13.80;99.90;;;;;;5089056;28;20443;-84
2021/09/04 05:57:04;;;;;;;15.30;13.80;;;13.80;99.90;;;;;;5079117;28;20810;-84
2021/09/04 05:59:31;;;;;;;15.23;13.57;;;13.80;99.90;;;;;;5078479;28;20452;-84
2021/09/04 06:01:59;;;;;;;16.33;14.23;;;13.90;99.90;;;;;;5079038;28;20471;-85
2021/09/04 06:04:25;;;;;;;17.70;13.33;;;14.00;99.90;;;;;;5078827;28;20828;-85
2021/09/04 06:06:52;;;;;;;14.37;12.97;;;14.00;99.90;;;;;;5077943;28;20464;-84
2021/09/04 06:09:21;;;;;;;15.13;13.50;;;14.20;99.90;;;;;;5084161;28;20507;-83
2021/09/04 06:11:48;;;;;;;15.47;13.90;;;14.20;99.90;;;;;;5096409;28;20479;-82
2021/09/04 06:14:15;;;;;;;15.30;13.80;;;14.30;99.90;;;;;;5096752;28;20419;-81
2021/09/04 06:16:42;;;;;;;14.50;13.10;;;14.30;99.90;;;;;;5096073;28;20437;-82
2021/09/04 06:19:10;;;;;;;14.43;13.03;;;14.40;99.90;;;;;;5087714;28;20475;-85
2021/09/04 06:21:37;;;;;;;18.07;13.87;;;14.50;99.90;;;;;;5081232;28;20466;-85
2021/09/04 06:24:04;;;;;;;16.10;14.50;;;14.50;99.90;;;;;;5080449;28;20445;-85
2021/09/04 06:26:31;;;;;;;16.37;14.67;;;14.60;99.90;;;;;;5085956;28;20427;-82
2021/09/04 06:28:58;;;;;;;15.67;13.87;;;14.70;99.90;;;;;;5096350;28;20478;-82
2021/09/04 06:31:25;;;;;;;15.17;13.57;;;14.80;99.90;;;;;;5096919;28;20553;-82
2021/09/04 06:33:51;;;;;;;14.90;13.27;;;14.90;99.90;;;;;;5087441;28;20440;-85
2021/09/04 06:36:20;;;;;;;14.87;13.20;;;15.00;99.90;;;;;;5080447;28;20453;-83
2021/09/04 06:38:46;;;;;;;15.77;13.10;;;15.20;99.90;;;;;;5086888;28;20556;-82
2021/09/04 06:41:13;;;;;;;15.30;13.73;;;15.40;99.90;;;;;;5087693;28;20475;-84
2021/09/04 06:43:40;;;;;;;16.07;14.47;;;15.50;99.90;;;;;;5080628;28;20482;-83
2021/09/04 06:46:06;;;;;;;14.53;13.20;;;15.70;99.90;;;;;;5079218;28;20874;-84
2021/09/04 06:48:33;;;;;;;14.60;13.30;;;15.90;99.90;;;;;;5077675;28;20490;-83
2021/09/04 06:51:00;;;;;;;20.10;14.60;;;16.10;99.90;;;;;;5081226;28;20525;-84
2021/09/04 06:53:28;;;;;;;13.80;12.50;;;16.10;99.90;;;;;;5078683;28;20446;-82
2021/09/04 06:55:55;;;;;;;15.27;13.70;;;16.40;99.90;;;;;;5077214;28;20500;-83
2021/09/04 06:58:22;;;;;;;17.23;13.40;;;16.60;99.90;;;;;;5076786;28;20448;-84
2021/09/04 07:00:49;;;;;;;15.40;13.73;;;16.70;99.90;;;;;;5078265;28;20463;-83
2021/09/04 07:03:16;;;;;;;14.17;12.50;;;16.80;99.90;;;;;;5080439;28;20538;-84
2021/09/04 07:05:42;;;;;;;13.90;12.50;;;16.90;99.90;;;;;;5078123;28;20508;-83
2021/09/04 07:08:09;;;;;;;16.77;14.23;;;17.10;99.90;;;;;;5079466;28;20479;-83
2021/09/04 07:10:37;;;;;;;13.50;12.30;;;17.20;99.90;;;;;;5080846;28;20463;-85
2021/09/04 07:13:04;;;;;;;14.10;12.80;;;17.30;99.90;;;;;;5078865;28;20967;-84
2021/09/04 07:15:31;;;;;;;15.07;13.57;;;17.50;99.90;;;;;;5078639;28;20864;-84
2021/09/04 07:17:57;;;;;;;12.10;10.97;;;17.80;99.90;;;;;;5081138;28;20446;-82
2021/09/04 07:20:24;;;;;;;13.40;12.07;;;18.80;99.90;;;;;;5078206;28;20512;-84
2021/09/04 07:22:51;;;;;;;12.97;11.87;;;20.50;99.90;;;;;;5083907;28;20450;-84
2021/09/04 07:25:18;;;;;;;12.97;11.80;;;21.70;99.90;;;;;;5090068;28;20428;-82
2021/09/04 07:27:47;;;;;;;12.17;11.10;;;21.70;99.90;;;;;;5094956;28;20446;-85
2021/09/04 07:30:16;;;;;;;14.93;11.73;;;21.30;99.90;;;;;;5087494;28;20505;-85
2021/09/04 07:32:42;;;;;;;10.57;9.70;;;22.00;99.90;;;;;;5085094;28;20474;-85
2021/09/04 07:35:10;;;;;;;13.90;12.60;;;22.90;97.90;;;;;;5083325;28;20453;-85
2021/09/04 07:37:37;;;;;;;13.30;12.10;;;23.10;96.50;;;;;;5081812;28;20444;-85
2021/09/04 07:40:05;;;;;;;12.07;11.03;;;22.40;96.30;;;;;;5083361;28;20437;-82
2021/09/04 07:42:31;;;;;;;11.60;10.60;;;21.70;97.60;;;;;;5094893;28;20473;-84
2021/09/04 07:44:59;;;;;;;12.47;10.97;;;21.00;98.70;;;;;;5084315;28;20502;-84
2021/09/04 07:47:26;;;;;;;12.43;11.33;;;20.70;99.90;;;;;;5083197;28;20640;-82
2021/09/04 07:49:53;;;;;;;12.50;11.30;;;20.60;99.90;;;;;;5085362;28;20482;-83
2021/09/04 07:52:19;;;;;;;12.43;11.30;;;20.50;99.90;;;;;;5084763;28;21010;-86
2021/09/04 07:54:46;;;;;;;12.53;11.40;;;20.50;99.90;;;;;;5092502;28;20744;-84
2021/09/04 07:57:13;;;;;;;12.60;11.47;;;20.50;99.90;;;;;;5088997;28;20525;-83
2021/09/04 07:59:39;;;;;;;12.40;10.03;;;20.40;99.90;;;;;;5096719;28;20435;-84
2021/09/04 08:02:07;;;;;;;11.80;10.80;;;20.40;99.90;;;;;;5086179;28;20470;-84
2021/09/04 08:04:34;;;;;;;10.80;9.90;;;20.20;99.90;;;;;;5087676;28;20436;-85
2021/09/04 08:07:01;;;;;;;11.20;9.90;;;20.20;99.90;;;;;;5088125;28;20818;-85
2021/09/04 08:09:27;;;;;;;12.77;11.10;;;20.20;99.90;;;;;;5083665;28;20482;-84
2021/09/04 08:11:54;;;;;;;12.87;11.67;;;20.30;99.90;;;;;;5084101;28;20474;-85
2021/09/04 08:14:21;;;;;;;11.53;10.43;;;20.50;99.90;;;;;;5092455;28;20500;-82
2021/09/04 08:16:47;;;;;;;10.87;9.90;;;20.60;99.90;;;;;;5093325;28;20451;-83
2021/09/04 08:19:16;;;;;;;12.20;11.00;;;20.50;99.90;;;;;;5086382;28;20439;-84
2021/09/04 08:21:42;;;;;;;11.83;10.63;;;20.40;99.90;;;;;;5091517;28;20474;-83
2021/09/04 08:24:09;;;;;;;12.27;11.03;;;20.40;99.90;;;;;;5093996;28;20946;-82
2021/09/04 08:26:36;;;;;;;12.00;11.00;;;20.60;99.90;;;;;;5096813;28;20451;-83
2021/09/04 08:29:03;;;;;;;11.67;10.67;;;20.80;99.90;;;;;;5095343;28;20554;-84
2021/09/04 08:31:30;;;;;;;10.93;9.87;;;20.90;99.90;;;;;;5095592;28;20467;-83
2021/09/04 08:33:56;;;;;;;11.53;9.97;;;21.10;99.90;;;;;;5094319;28;20443;-85
2021/09/04 08:36:24;;;;;;;11.50;10.30;;;21.40;99.90;;;;;;5093942;28;20436;-83
2021/09/04 08:38:51;;;;;;;16.80;10.57;;;22.00;98.80;;;;;;5094832;28;20452;-84
2021/09/04 08:41:18;;;;;;;10.13;9.13;;;23.80;97.10;;;;;;5088224;28;20455;-84
2021/09/04 08:43:46;;;;;;;9.90;9.00;;;25.50;93.10;;;;;;5088882;28;20439;-85
2021/09/04 08:46:14;;;;;;;9.77;8.87;;;27.90;89.50;;;;;;5090998;28;20451;-84
2021/09/04 08:48:42;;;;;;;10.43;9.53;;;29.80;80.30;;;;;;5086769;28;20482;-85
2021/09/04 08:51:10;;;;;;;10.33;9.27;;;31.10;69.60;;;;;;5091155;28;20451;-83
2021/09/04 08:53:38;;;;;;;10.60;9.53;;;31.70;65.70;;;;;;5094364;28;20940;-83
2021/09/04 08:56:09;;;;;;;9.80;8.60;;;32.30;61.50;;;;;;5088340;28;20480;-84
2021/09/04 08:58:36;;;;;;;9.83;9.03;;;33.40;58.30;;;;;;5091224;28;20432;-83
2021/09/04 09:01:03;;;;;;;9.63;8.87;;;34.50;55.10;;;;;;5093682;28;20522;-84
2021/09/04 09:03:30;;;;;;;9.13;8.43;;;32.80;55.40;;;;;;5090450;28;20447;-83
2021/09/04 09:05:58;;;;;;;8.77;8.07;;;33.90;54.60;;;;;;5088581;28;20444;-83
2021/09/04 09:08:26;;;;;;;9.43;8.27;;;33.60;52.70;;;;;;5087058;28;20446;-83
2021/09/04 09:10:59;;;;;;;9.57;8.87;;;34.70;52.20;;;;;;5093970;22;20945;-90
2021/09/04 09:13:27;;;;;;;8.97;8.30;;;33.60;52.10;;;;;;5061739;28;20824;-90
2021/09/04 09:15:55;;;;;;;9.47;8.67;;;33.80;51.90;;;;;;5057206;28;20431;-90
2021/09/04 09:18:26;;;;;;;9.20;8.50;;;33.70;52.10;;;;;;5055926;28;20953;-89
2021/09/04 09:20:58;;;;;;;8.60;7.90;;;35.20;50.20;;;;;;5059689;28;20867;-90
2021/09/04 09:23:25;;;;;;;7.33;6.73;;;34.50;50.30;;;;;;5075973;28;20454;-90
2021/09/04 09:25:52;;;;;;;9.60;8.80;;;35.40;49.80;;;;;;5078088;28;20434;-90
2021/09/04 09:28:21;;;;;;;9.30;8.50;;;35.80;47.60;;;;;;5076467;28;20460;-88
2021/09/04 09:30:50;;;;;;;8.27;7.63;;;35.80;47.50;;;;;;5074691;28;20471;-89
2021/09/04 09:33:19;;;;;;;8.67;7.87;;;36.40;47.30;;;;;;5074591;28;20443;-89
2021/09/04 09:35:48;;;;;;;9.17;8.33;;;37.30;46.00;;;;;;5076037;28;20431;-90
2021/09/04 09:38:16;;;;;;;8.30;7.53;;;37.60;45.20;;;;;;5077496;28;20430;-90
2021/09/04 09:40:44;;;;;;;8.40;7.70;;;38.10;44.20;;;;;;5075335;28;20439;-90
2021/09/04 09:43:16;;;;;;;7.83;7.23;;;38.70;43.30;;;;;;5075545;28;20439;-90
2021/09/04 09:45:46;;;;;;;9.33;7.40;;;39.40;42.50;;;;;;5075404;28;20447;-90
2021/09/04 09:48:14;;;;;;;7.50;6.80;;;40.00;41.60;;;;;;5075096;28;20454;-90
2021/09/04 09:50:40;;;;;;;8.70;8.10;;;40.60;41.10;;;;;;5076429;28;20475;-90
2021/09/04 09:53:07;;;;;;;7.57;6.97;;;41.60;39.90;;;;;;5074977;28;20447;-90
2021/09/04 09:55:34;;;;;;;8.27;7.57;;;41.30;38.80;;;;;;5075658;28;20438;-90
2021/09/04 09:58:02;;;;;;;9.23;8.50;;;40.40;39.60;;;;;;5074215;28;20447;-90
2021/09/04 10:00:30;;;;;;;8.20;7.50;;;39.70;39.80;;;;;;5074601;28;20525;-90
2021/09/04 10:03:01;;;;;;;8.77;8.07;;;40.40;39.90;;;;;;5075873;28;20439;-91
2021/09/04 10:05:30;;;;;;;7.70;7.00;;;41.10;37.90;;;;;;5098527;28;20432;-90
2021/09/04 10:07:58;;;;;;;7.77;7.17;;;41.40;37.30;;;;;;5086609;28;20450;-93
2021/09/04 10:10:26;;;;;;;8.17;7.47;;;41.60;37.40;;;;;;5084308;28;20487;-90
2021/09/04 10:12:54;;;;;;;13.70;12.37;;;41.10;37.60;;;;;;5083396;28;20530;-91
2021/09/04 10:15:22;;;;;;;8.20;7.50;;;41.00;37.30;;;;;;5091581;28;20490;-91
2021/09/04 10:17:53;;;;;;;7.67;6.97;;;40.80;38.00;;;;;;5082676;28;20443;-92
2021/09/04 10:20:22;;;;;;;7.67;7.07;;;40.90;38.30;;;;;;5089952;28;20431;-91
2021/09/04 10:22:48;;;;;;;7.50;6.90;;;40.50;37.60;;;;;;5087864;28;20558;-90
2021/09/04 10:25:17;;;;;;;7.57;6.87;;;39.00;38.50;;;;;;5078254;28;20424;-90
2021/09/04 10:27:47;;;;;;;8.00;7.30;;;38.70;40.20;;;;;;5080375;28;20420;-91
2021/09/04 10:30:26;;;;;;;8.83;6.23;;;38.00;39.70;;;;;;5095412;28;20499;-91
2021/09/04 10:33:02;;;;;;;10.30;9.50;;;39.70;38.60;;;;;;5092591;28;20908;-90
2021/09/04 10:35:49;;;;;;;8.03;7.33;;;38.40;39.90;;;;;;5092776;28;20533;-91
2021/09/04 10:38:31;;;;;;;7.03;6.57;;;40.10;37.10;;;;;;5077317;28;20519;-91
2021/09/04 10:41:23;;;;;;;7.73;7.13;;;39.80;37.20;;;;;;5075007;28;20526;-90
2021/09/04 10:43:54;;;;;;;5.80;5.40;;;39.50;37.50;;;;;;5061233;28;20456;-90
2021/09/04 10:46:21;;;;;;;7.20;6.70;;;41.30;36.00;;;;;;5076219;28;20450;-90
2021/09/04 10:49:00;;;;;;;7.20;6.60;;;41.70;34.50;;;;;;5074906;28;20517;-90
2021/09/04 10:51:53;;;;;;;7.43;6.83;;;41.90;33.60;;;;;;5075969;28;20890;-90
2021/09/04 10:54:58;;;;;;;7.90;7.30;;;41.60;34.60;;;;;;5092387;28;20443;-93
2021/09/04 10:57:25;;;;;;;6.17;5.73;;;41.60;35.50;;;;;;5084578;28;20441;-91
2021/09/04 11:00:04;;;;;;;7.13;6.10;;;41.80;35.20;;;;;;5077204;28;20478;-91
2021/09/04 11:02:42;;;;;;;7.33;6.63;;;42.50;34.60;;;;;;5088736;28;21015;-90
2021/09/04 11:05:45;;;;;;;7.13;6.43;;;42.60;33.30;;;;;;5076917;28;20447;-90
2021/09/04 11:08:14;;;;;;;6.27;5.77;;;41.70;33.60;;;;;;5064765;28;20477;-91
2021/09/04 11:10:42;;;;;;;6.20;5.70;;;41.10;34.50;;;;;;5075011;28;20514;-90
2021/09/04 11:13:39;;;;;;;6.60;6.10;;;41.60;34.50;;;;;;5075967;28;20443;-90
2021/09/04 11:16:26;;;;;;;6.83;6.23;;;40.50;34.30;;;;;;5018201;28;20955;-90
2021/09/04 11:18:54;;;;;;;6.20;5.80;;;40.90;34.30;;;;;;5083811;28;20834;-90
2021/09/04 11:21:21;;;;;;;8.17;5.90;;;41.60;33.40;;;;;;5078288;28;20482;-90
2021/09/04 11:23:51;;;;;;;6.00;5.60;;;40.90;34.00;;;;;;5078380;28;20455;-90
2021/09/04 11:26:18;;;;;;;5.90;5.40;;;40.40;34.50;;;;;;5082243;28;20933;-90
2021/09/04 11:28:54;;;;;;;6.10;5.60;;;40.30;33.90;;;;;;5078434;28;20497;-89
2021/09/04 11:31:21;;;;;;;5.80;5.37;;;40.80;33.90;;;;;;5078619;28;20459;-90
2021/09/04 11:33:52;;;;;;;5.70;5.30;;;41.00;32.80;;;;;;5078314;28;20439;-90
2021/09/04 11:36:30;;;;;;;5.70;5.30;;;40.90;32.60;;;;;;5078391;28;20451;-90
2021/09/04 11:38:58;;;;;;;5.90;5.50;;;39.60;34.50;;;;;;5077240;28;20454;-90
2021/09/04 11:41:26;;;;;;;5.60;5.20;;;40.20;34.00;;;;;;5077958;28;20471;-90
2021/09/04 11:43:53;;;;;;;5.63;5.23;;;40.20;33.30;;;;;;5077292;28;20450;-90
2021/09/04 11:46:25;;;;;;;5.00;4.60;;;40.90;32.90;;;;;;5078297;28;20447;-91
2021/09/04 11:48:55;;;;;;;6.50;5.57;;;42.20;31.50;;;;;;5097983;28;20439;-91
2021/09/04 11:51:21;;;;;;;5.50;5.10;;;42.50;30.20;;;;;;5087662;28;20495;-93
2021/09/04 11:53:57;;;;;;;6.37;5.87;;;42.20;29.90;;;;;;5096300;28;20521;-91
2021/09/04 11:56:25;;;;;;;5.00;4.60;;;42.20;30.50;;;;;;5082072;28;20446;-90
2021/09/04 11:58:52;;;;;;;5.47;4.97;;;42.70;29.90;;;;;;5088176;28;20439;-91
2021/09/04 12:01:21;;;;;;;5.87;5.37;;;41.50;30.00;;;;;;5089867;28;20466;-90
2021/09/04 12:03:55;;;;;;;5.73;5.30;;;40.90;31.50;;;;;;5094274;28;20428;-91
2021/09/04 12:06:22;;;;;;;4.77;4.37;;;41.70;30.20;;;;;;5085425;28;20479;-91
2021/09/04 12:08:49;;;;;;;6.53;5.23;;;41.90;30.10;;;;;;5076958;28;20435;-90
2021/09/04 12:11:16;;;;;;;5.53;5.13;;;40.10;30.90;;;;;;5076952;28;20486;-90
2021/09/04 12:13:44;;;;;;;6.03;5.43;;;40.20;30.80;;;;;;5078045;28;20439;-90
2021/09/04 12:16:14;;;;;;;5.17;4.73;;;40.80;31.30;;;;;;5076050;28;20455;-90
2021/09/04 12:18:42;;;;;;;5.23;4.67;;;40.70;31.30;;;;;;5075781;28;20477;-89
2021/09/04 12:21:20;;;;;;;5.83;5.40;;;40.70;30.80;;;;;;5077175;28;20967;-89
2021/09/04 12:23:48;;;;;;;5.13;4.73;;;40.70;30.60;;;;;;5080034;28;20454;-90
2021/09/04 12:26:17;;;;;;;5.10;4.80;;;41.30;29.50;;;;;;5078106;28;20968;-88
2021/09/04 12:28:46;;;;;;;6.00;5.50;;;42.30;29.20;;;;;;5077346;28;20475;-89
2021/09/04 12:31:14;;;;;;;5.37;4.97;;;43.00;28.40;;;;;;5077402;28;20494;-88
2021/09/04 12:34:01;;;;;;;4.80;4.40;;;43.30;27.60;;;;;;5077060;28;20457;-90
2021/09/04 12:36:38;;;;;;;5.70;5.20;;;43.10;28.00;;;;;;5077484;28;20501;-89
2021/09/04 12:39:13;;;;;;;5.30;4.90;;;43.50;27.70;;;;;;5076788;28;20804;-90